createdAt,value
2023-12-31T00:00:12.244Z,73.49
2023-12-31T00:02:39.263Z,73.14
2023-12-31T00:05:06.717Z,72.83
2023-12-31T00:07:34.855Z,72.86
2023-12-31T00:10:03.285Z,72.62
2023-12-31T00:12:30.205Z,72.87
2023-12-31T00:14:57.053Z,72.92
2023-12-31T00:17:23.838Z,72.83
2023-12-31T00:19:50.888Z,72.88
2023-12-31T00:22:17.816Z,73.06
2023-12-31T00:24:44.726Z,73.54
2023-12-31T00:27:11.624Z,73.58
2023-12-31T00:29:38.457Z,73.38
2023-12-31T00:32:05.763Z,73.24
2023-12-31T00:34:32.635Z,73.14
2023-12-31T00:36:59.710Z,73.11
2023-12-31T00:39:26.499Z,73.19
2023-12-31T00:41:53.388Z,73.58
2023-12-31T00:44:20.234Z,73.30
2023-12-31T00:46:47.109Z,73.29
2023-12-31T00:49:14.007Z,74.01
2023-12-31T00:51:41.188Z,73.96
2023-12-31T00:54:07.976Z,73.84
2023-12-31T00:56:34.761Z,73.75
2023-12-31T00:59:03.702Z,73.57
2023-12-31T01:01:30.925Z,73.35
2023-12-31T01:03:57.916Z,73.16
2023-12-31T01:06:24.765Z,73.19
2023-12-31T01:08:52.474Z,73.34
2023-12-31T01:11:19.360Z,73.60
2023-12-31T01:13:46.420Z,73.75
2023-12-31T01:16:14.405Z,73.66
2023-12-31T01:18:41.310Z,73.62
2023-12-31T01:21:08.163Z,73.63
2023-12-31T01:23:35.113Z,73.64
2023-12-31T01:26:01.923Z,73.60
2023-12-31T01:28:28.800Z,73.67
2023-12-31T01:30:55.664Z,73.71
2023-12-31T01:33:22.858Z,73.80
2023-12-31T01:35:49.746Z,73.87
2023-12-31T01:38:16.579Z,73.74
2023-12-31T01:40:53.678Z,74.13
2023-12-31T01:43:21.343Z,74.14
2023-12-31T01:45:48.173Z,74.35
2023-12-31T01:48:15.295Z,74.37
2023-12-31T01:50:43.043Z,74.35
2023-12-31T01:53:09.828Z,74.53
2023-12-31T01:55:36.950Z,74.80
2023-12-31T01:58:04.042Z,75.01
2023-12-31T02:00:30.929Z,75.15
2023-12-31T02:02:57.799Z,74.98
2023-12-31T02:05:24.666Z,74.69
2023-12-31T02:07:51.600Z,74.14
2023-12-31T02:10:18.470Z,74.16
2023-12-31T02:12:45.196Z,74.65
2023-12-31T02:15:12.088Z,74.61
2023-12-31T02:17:39.092Z,74.81
2023-12-31T02:20:07.999Z,75.03
2023-12-31T02:22:34.703Z,75.04
2023-12-31T02:25:06.444Z,75.14
2023-12-31T02:27:33.364Z,75.22
2023-12-31T02:30:02.971Z,75.41
2023-12-31T02:32:29.852Z,75.43
2023-12-31T02:34:57.026Z,75.26
2023-12-31T02:37:23.849Z,75.12
2023-12-31T02:39:50.826Z,74.94
2023-12-31T02:42:17.597Z,74.85
2023-12-31T02:44:44.400Z,74.81
2023-12-31T02:47:12.632Z,74.71
2023-12-31T02:49:39.580Z,74.59
2023-12-31T02:52:06.590Z,74.44
2023-12-31T02:54:33.345Z,74.31
2023-12-31T02:57:00.096Z,74.14
2023-12-31T02:59:26.834Z,74.19
2023-12-31T03:01:53.962Z,74.29
2023-12-31T03:04:20.848Z,74.25
2023-12-31T03:06:52.740Z,74.41
2023-12-31T03:09:20.363Z,74.61
2023-12-31T03:11:47.185Z,74.50
2023-12-31T03:14:14.850Z,74.76
2023-12-31T03:16:48.061Z,74.85
2023-12-31T03:19:15.329Z,74.90
2023-12-31T03:21:42.378Z,74.69
2023-12-31T03:24:09.607Z,74.81
2023-12-31T03:26:37.010Z,74.90
2023-12-31T03:29:04.136Z,74.82
2023-12-31T03:31:31.097Z,74.47
2023-12-31T03:33:57.918Z,74.41
2023-12-31T03:36:25.813Z,74.30
2023-12-31T03:38:53.648Z,74.48
2023-12-31T03:41:20.626Z,74.04
2023-12-31T03:43:47.610Z,73.77
2023-12-31T03:46:14.545Z,74.10
2023-12-31T03:48:41.503Z,74.48
2023-12-31T03:51:09.736Z,74.19
2023-12-31T03:53:37.053Z,74.19
2023-12-31T03:56:04.929Z,74.30
2023-12-31T03:58:31.744Z,74.48
2023-12-31T04:00:58.667Z,74.74
2023-12-31T04:03:25.813Z,74.92
2023-12-31T04:05:53.838Z,74.93
2023-12-31T04:08:20.776Z,74.92
2023-12-31T04:10:47.676Z,75.07
2023-12-31T04:13:14.637Z,75.14
2023-12-31T04:15:41.536Z,75.36
2023-12-31T04:18:08.403Z,75.29
2023-12-31T04:20:35.247Z,75.35
2023-12-31T04:23:02.306Z,75.51
2023-12-31T04:25:29.200Z,75.52
2023-12-31T04:27:56.058Z,75.51
2023-12-31T04:30:24.217Z,75.46
2023-12-31T04:32:51.104Z,75.36
2023-12-31T04:35:17.992Z,75.45
2023-12-31T04:37:44.854Z,75.42
2023-12-31T04:40:12.078Z,75.43
2023-12-31T04:42:38.876Z,75.48
2023-12-31T04:45:09.045Z,75.67
2023-12-31T04:47:38.961Z,75.88
2023-12-31T04:50:07.198Z,75.86
2023-12-31T04:52:34.138Z,75.91
2023-12-31T04:55:01.083Z,75.73
2023-12-31T04:57:28.024Z,75.65
2023-12-31T04:59:55.035Z,75.44
2023-12-31T05:02:23.402Z,75.43
2023-12-31T05:04:50.259Z,75.48
2023-12-31T05:07:17.364Z,75.57
2023-12-31T05:09:44.234Z,75.56
2023-12-31T05:12:10.984Z,75.90
2023-12-31T05:14:38.089Z,75.78
2023-12-31T05:17:05.138Z,75.70
2023-12-31T05:19:33.168Z,75.72
2023-12-31T05:22:00.252Z,75.88
2023-12-31T05:24:27.142Z,75.90
2023-12-31T05:26:54.031Z,75.81
2023-12-31T05:29:21.242Z,75.75
2023-12-31T05:31:48.135Z,75.71
2023-12-31T05:34:15.090Z,75.79
2023-12-31T05:36:42.079Z,75.80
2023-12-31T05:39:10.189Z,75.73
2023-12-31T05:41:38.208Z,75.70
2023-12-31T05:44:05.667Z,75.61
2023-12-31T05:46:32.655Z,75.46
2023-12-31T05:48:59.765Z,75.16
2023-12-31T05:51:26.767Z,75.37
2023-12-31T05:53:53.560Z,75.45
2023-12-31T05:56:20.403Z,75.56
2023-12-31T05:58:48.181Z,75.52
2023-12-31T06:01:15.380Z,75.53
2023-12-31T06:03:42.535Z,75.53
2023-12-31T06:06:09.878Z,75.76
2023-12-31T06:08:36.727Z,75.68
2023-12-31T06:11:03.568Z,75.55
2023-12-31T06:13:30.919Z,75.59
2023-12-31T06:15:57.761Z,75.57
2023-12-31T06:18:24.668Z,75.58
2023-12-31T06:20:51.558Z,75.65
2023-12-31T06:23:18.350Z,75.69
2023-12-31T06:25:45.303Z,75.79
2023-12-31T06:28:12.789Z,75.78
2023-12-31T06:30:39.968Z,75.98
2023-12-31T06:33:07.124Z,76.17
2023-12-31T06:35:34.148Z,76.14
2023-12-31T06:38:01.005Z,76.08
2023-12-31T06:40:27.800Z,76.12
2023-12-31T06:42:54.584Z,76.18
2023-12-31T06:45:21.472Z,76.17
2023-12-31T06:47:48.602Z,76.02
2023-12-31T06:50:17.040Z,75.80
2023-12-31T06:52:43.964Z,75.87
2023-12-31T06:55:13.263Z,75.88
2023-12-31T06:57:40.320Z,75.80
2023-12-31T07:00:09.295Z,75.76
2023-12-31T07:02:36.204Z,75.77
2023-12-31T07:05:03.169Z,75.61
2023-12-31T07:07:30.062Z,75.66
2023-12-31T07:09:56.866Z,75.75
2023-12-31T07:12:23.617Z,75.76
2023-12-31T07:14:50.440Z,75.79
2023-12-31T07:17:17.290Z,75.32
2023-12-31T07:19:44.264Z,74.58
2023-12-31T07:22:11.087Z,74.61
2023-12-31T07:24:38.086Z,74.59
2023-12-31T07:27:06.413Z,74.69
2023-12-31T07:29:33.732Z,74.63
2023-12-31T07:32:00.806Z,74.45
2023-12-31T07:34:27.677Z,73.99
2023-12-31T07:36:54.578Z,74.18
2023-12-31T07:39:21.395Z,74.46
2023-12-31T07:41:48.341Z,74.37
2023-12-31T07:44:16.103Z,74.64
2023-12-31T07:46:43.030Z,74.53
2023-12-31T07:49:09.934Z,74.22
2023-12-31T07:51:37.002Z,74.04
2023-12-31T07:54:03.830Z,73.56
2023-12-31T07:56:30.671Z,73.64
2023-12-31T07:58:57.515Z,72.89
2023-12-31T08:01:24.469Z,71.83
2023-12-31T08:03:52.262Z,70.79
2023-12-31T08:06:19.345Z,69.91
2023-12-31T08:08:46.288Z,68.97
2023-12-31T08:11:14.084Z,66.52
2023-12-31T08:13:40.985Z,68.02
2023-12-31T08:16:08.544Z,67.78
2023-12-31T08:18:35.863Z,67.62
2023-12-31T08:21:03.158Z,68.28
2023-12-31T08:23:31.074Z,68.03
2023-12-31T08:25:58.320Z,64.99
2023-12-31T08:28:25.248Z,62.45
2023-12-31T08:30:53.717Z,61.62
2023-12-31T08:33:20.525Z,60.95
2023-12-31T08:35:47.432Z,60.82
2023-12-31T08:38:14.275Z,60.76
2023-12-31T08:40:41.205Z,61.75
2023-12-31T08:43:08.013Z,60.82
2023-12-31T08:45:34.859Z,61.10
2023-12-31T08:48:01.784Z,60.97
2023-12-31T08:50:30.519Z,60.61
2023-12-31T08:52:57.734Z,60.97
2023-12-31T08:55:24.719Z,61.08
2023-12-31T08:57:51.594Z,61.40
2023-12-31T09:00:19.022Z,59.64
2023-12-31T09:02:46.736Z,60.80
2023-12-31T09:05:13.748Z,60.70
2023-12-31T09:07:44.116Z,60.45
2023-12-31T09:10:11.130Z,60.52
2023-12-31T09:12:38.137Z,60.50
2023-12-31T09:15:06.654Z,61.10
2023-12-31T09:17:36.668Z,61.29
2023-12-31T09:20:06.384Z,60.45
2023-12-31T09:22:33.886Z,59.92
2023-12-31T09:25:01.006Z,59.32
2023-12-31T09:27:27.912Z,59.42
2023-12-31T09:29:54.801Z,58.01
2023-12-31T09:32:22.087Z,58.79
2023-12-31T09:34:48.981Z,58.19
2023-12-31T09:37:20.453Z,58.53
2023-12-31T09:39:48.269Z,57.47
2023-12-31T09:42:19.244Z,57.82
2023-12-31T09:44:46.201Z,57.36
2023-12-31T09:47:13.435Z,56.97
2023-12-31T09:49:43.245Z,56.87
2023-12-31T09:52:10.599Z,56.37
2023-12-31T09:54:41.778Z,56.09
2023-12-31T09:57:11.343Z,55.59
2023-12-31T09:59:40.109Z,55.25
2023-12-31T10:02:07.951Z,55.92
2023-12-31T10:04:34.875Z,55.09
2023-12-31T10:07:03.492Z,55.70
2023-12-31T10:09:33.571Z,55.91
2023-12-31T10:12:02.671Z,56.14
2023-12-31T10:14:29.831Z,55.41
2023-12-31T10:16:57.131Z,55.69
2023-12-31T10:19:24.923Z,55.26
2023-12-31T10:21:52.046Z,54.91
2023-12-31T10:24:29.048Z,54.65
2023-12-31T10:26:58.276Z,53.41
2023-12-31T10:29:25.700Z,53.42
2023-12-31T10:31:53.171Z,53.39
2023-12-31T10:34:20.198Z,54.02
2023-12-31T10:36:48.160Z,52.54
2023-12-31T10:39:32.709Z,52.34
2023-12-31T10:42:00.631Z,52.25
2023-12-31T10:44:27.841Z,52.19
2023-12-31T10:46:56.929Z,52.90
2023-12-31T10:49:24.158Z,50.63
2023-12-31T10:51:53.378Z,50.13
2023-12-31T10:54:30.162Z,49.32
2023-12-31T10:56:57.041Z,49.97
2023-12-31T10:59:24.127Z,49.24
2023-12-31T11:01:51.035Z,49.71
2023-12-31T11:04:18.827Z,49.92
2023-12-31T11:06:47.787Z,50.09
2023-12-31T11:09:14.607Z,49.44
2023-12-31T11:11:42.237Z,50.27
2023-12-31T11:14:10.535Z,51.77
2023-12-31T11:16:53.009Z,51.19
2023-12-31T11:19:28.993Z,51.34
2023-12-31T11:22:19.532Z,53.61
2023-12-31T11:24:46.328Z,51.76
2023-12-31T11:27:18.397Z,51.44
2023-12-31T11:29:45.963Z,49.01
2023-12-31T11:32:12.790Z,49.48
2023-12-31T11:34:42.558Z,48.82
2023-12-31T11:37:09.514Z,49.52
2023-12-31T11:39:36.315Z,49.31
2023-12-31T11:42:11.375Z,49.52
2023-12-31T11:44:45.678Z,49.79
2023-12-31T11:47:21.892Z,50.35
2023-12-31T11:50:01.288Z,49.03
2023-12-31T11:52:42.126Z,49.67
2023-12-31T11:55:13.462Z,48.56
2023-12-31T11:57:41.109Z,48.26
2023-12-31T12:00:09.780Z,47.43
2023-12-31T12:02:36.563Z,47.89
2023-12-31T12:05:04.322Z,47.65
2023-12-31T12:07:31.392Z,48.03
2023-12-31T12:09:58.496Z,48.19
2023-12-31T12:12:25.264Z,48.74
2023-12-31T12:14:52.312Z,49.07
2023-12-31T12:17:19.173Z,49.29
2023-12-31T12:19:46.332Z,48.86
2023-12-31T12:22:13.675Z,49.45
2023-12-31T12:24:41.700Z,48.77
2023-12-31T12:27:08.679Z,48.53
2023-12-31T12:29:36.870Z,48.47
2023-12-31T12:32:05.682Z,49.19
2023-12-31T12:34:32.779Z,48.89
2023-12-31T12:37:00.743Z,47.82
2023-12-31T12:39:27.563Z,48.44
2023-12-31T12:41:54.507Z,47.81
2023-12-31T12:44:23.188Z,47.59
2023-12-31T12:46:51.503Z,47.79
2023-12-31T12:49:19.202Z,48.23
2023-12-31T12:51:46.207Z,48.23
2023-12-31T12:54:13.090Z,47.79
2023-12-31T12:56:39.977Z,48.11
2023-12-31T12:59:06.935Z,46.49
2023-12-31T13:01:33.954Z,44.53
2023-12-31T13:04:00.759Z,44.61
2023-12-31T13:06:27.753Z,45.57
2023-12-31T13:08:54.545Z,47.19
2023-12-31T13:11:21.445Z,45.91
2023-12-31T13:13:48.620Z,45.44
2023-12-31T13:16:21.915Z,44.48
2023-12-31T13:18:51.329Z,42.87
2023-12-31T13:21:18.633Z,44.00
2023-12-31T13:23:45.654Z,44.48
2023-12-31T13:26:12.441Z,45.75
2023-12-31T13:28:40.214Z,46.15
2023-12-31T13:31:07.233Z,46.05
2023-12-31T13:33:34.238Z,46.34
2023-12-31T13:36:01.101Z,47.52
2023-12-31T13:38:28.034Z,48.57
2023-12-31T13:40:56.561Z,48.96
2023-12-31T13:43:23.676Z,49.25
2023-12-31T13:45:50.577Z,49.49
2023-12-31T13:48:19.726Z,49.17
2023-12-31T13:50:46.959Z,50.02
2023-12-31T13:53:15.346Z,50.41
2023-12-31T13:55:42.885Z,51.08
2023-12-31T13:58:10.456Z,51.57
2023-12-31T14:00:37.533Z,52.07
2023-12-31T14:03:07.864Z,52.59
2023-12-31T14:05:36.186Z,52.97
2023-12-31T14:08:03.659Z,53.90
2023-12-31T14:10:31.536Z,54.59
2023-12-31T14:12:58.618Z,55.20
2023-12-31T14:15:25.642Z,55.61
2023-12-31T14:17:54.203Z,55.93
2023-12-31T14:20:21.418Z,56.49
2023-12-31T14:22:48.418Z,56.82
2023-12-31T14:25:15.391Z,57.15
2023-12-31T14:27:42.308Z,57.77
2023-12-31T14:30:09.904Z,58.22
2023-12-31T14:32:36.876Z,58.62
2023-12-31T14:35:04.252Z,59.01
2023-12-31T14:37:31.239Z,59.37
2023-12-31T14:39:58.230Z,59.66
2023-12-31T14:42:25.005Z,60.06
2023-12-31T14:44:51.857Z,60.89
2023-12-31T14:47:19.025Z,61.09
2023-12-31T14:49:46.590Z,61.22
2023-12-31T14:52:13.668Z,61.21
2023-12-31T14:54:40.623Z,61.43
2023-12-31T14:57:07.570Z,61.75
2023-12-31T14:59:34.503Z,61.91
2023-12-31T15:02:02.615Z,62.09
2023-12-31T15:04:29.703Z,62.32
2023-12-31T15:06:56.619Z,62.20
2023-12-31T15:09:23.397Z,62.41
2023-12-31T15:11:50.793Z,62.57
2023-12-31T15:14:18.053Z,62.40
2023-12-31T15:16:45.453Z,62.79
2023-12-31T15:19:12.686Z,62.95
2023-12-31T15:21:39.643Z,63.00
2023-12-31T15:24:07.741Z,63.09
2023-12-31T15:26:34.806Z,63.20
2023-12-31T15:29:02.734Z,63.41
2023-12-31T15:31:30.466Z,63.59
2023-12-31T15:33:57.471Z,63.61
2023-12-31T15:36:24.769Z,63.63
2023-12-31T15:38:51.667Z,63.62
2023-12-31T15:41:19.482Z,63.84
2023-12-31T15:43:46.744Z,63.89
2023-12-31T15:46:13.753Z,64.10
2023-12-31T15:48:41.289Z,64.21
2023-12-31T15:51:12.266Z,64.53
2023-12-31T15:53:39.399Z,64.78
2023-12-31T15:56:06.684Z,64.89
2023-12-31T15:58:33.763Z,65.28
2023-12-31T16:01:00.942Z,65.43
2023-12-31T16:03:27.985Z,65.63
2023-12-31T16:05:54.953Z,65.78
2023-12-31T16:08:22.338Z,66.06
2023-12-31T16:10:51.169Z,66.23
2023-12-31T16:13:18.319Z,66.42
2023-12-31T16:15:45.246Z,66.61
2023-12-31T16:18:12.365Z,66.84
2023-12-31T16:20:39.239Z,67.04
2023-12-31T16:23:06.568Z,67.11
2023-12-31T16:25:33.430Z,67.21
2023-12-31T16:28:00.250Z,67.46
2023-12-31T16:30:27.058Z,67.56
2023-12-31T16:32:54.161Z,67.55
2023-12-31T16:35:20.990Z,67.65
2023-12-31T16:37:47.753Z,67.67
2023-12-31T16:40:16.705Z,67.66
2023-12-31T16:42:44.551Z,67.73
2023-12-31T16:45:11.784Z,67.77
2023-12-31T16:47:40.442Z,67.92
2023-12-31T16:50:11.039Z,68.16
2023-12-31T16:52:38.497Z,68.27
2023-12-31T16:55:06.126Z,68.23
2023-12-31T16:57:33.023Z,68.30
2023-12-31T17:00:01.928Z,68.29
2023-12-31T17:02:28.878Z,68.39
2023-12-31T17:04:55.735Z,68.53
2023-12-31T17:07:22.745Z,68.51
2023-12-31T17:09:49.625Z,68.54
2023-12-31T17:12:16.556Z,68.67
2023-12-31T17:14:43.884Z,68.65
2023-12-31T17:17:11.403Z,68.53
2023-12-31T17:19:40.556Z,68.73
2023-12-31T17:22:08.590Z,68.82
2023-12-31T17:24:35.465Z,68.79
2023-12-31T17:27:03.895Z,68.77
2023-12-31T17:29:30.775Z,68.53
2023-12-31T17:31:57.726Z,68.84
2023-12-31T17:34:24.695Z,68.82
2023-12-31T17:36:55.205Z,68.86
2023-12-31T17:39:22.098Z,68.84
2023-12-31T17:41:49.048Z,68.90
2023-12-31T17:44:15.913Z,69.00
2023-12-31T17:46:42.828Z,69.09
2023-12-31T17:49:10.053Z,69.10
2023-12-31T17:51:36.984Z,69.10
2023-12-31T17:54:04.887Z,69.12
2023-12-31T17:56:31.759Z,69.18
2023-12-31T17:58:59.168Z,69.32
2023-12-31T18:01:26.004Z,69.33
2023-12-31T18:03:52.893Z,69.29
2023-12-31T18:06:20.289Z,69.09
2023-12-31T18:08:50.116Z,69.26
2023-12-31T18:11:17.360Z,69.41
2023-12-31T18:13:44.217Z,69.44
2023-12-31T18:16:11.306Z,69.40
2023-12-31T18:18:41.319Z,69.41
2023-12-31T18:21:08.444Z,69.53
2023-12-31T18:23:35.235Z,69.56
2023-12-31T18:26:02.104Z,69.83
2023-12-31T18:28:29.059Z,70.08
2023-12-31T18:30:56.365Z,70.17
2023-12-31T18:33:23.262Z,70.15
2023-12-31T18:35:50.482Z,70.35
2023-12-31T18:38:18.592Z,70.55
2023-12-31T18:40:45.706Z,70.71
2023-12-31T18:43:13.253Z,70.74
2023-12-31T18:45:40.191Z,70.87
2023-12-31T18:48:07.801Z,71.08
2023-12-31T18:50:34.963Z,71.24
2023-12-31T18:53:02.728Z,71.17
2023-12-31T18:55:30.446Z,70.99
2023-12-31T18:57:59.046Z,70.95
2023-12-31T19:00:26.127Z,70.95
2023-12-31T19:02:53.701Z,70.52
2023-12-31T19:05:20.583Z,70.40
2023-12-31T19:07:48.386Z,70.56
2023-12-31T19:10:15.349Z,70.42
2023-12-31T19:12:44.056Z,70.05
2023-12-31T19:15:11.836Z,69.65
2023-12-31T19:17:40.400Z,69.45
2023-12-31T19:20:07.917Z,69.44
2023-12-31T19:22:35.220Z,70.00
2023-12-31T19:25:02.180Z,70.58
2023-12-31T19:27:29.017Z,70.73
2023-12-31T19:29:55.717Z,70.68
2023-12-31T19:32:22.585Z,70.69
2023-12-31T19:34:49.605Z,70.55
2023-12-31T19:37:20.193Z,70.57
2023-12-31T19:39:47.151Z,70.44
2023-12-31T19:42:13.906Z,70.21
2023-12-31T19:44:44.049Z,69.47
2023-12-31T19:47:11.242Z,69.20
2023-12-31T19:49:51.595Z,69.24
2023-12-31T19:52:26.724Z,69.18
2023-12-31T19:54:53.680Z,69.44
2023-12-31T19:57:20.709Z,69.58
2023-12-31T19:59:47.817Z,69.50
2023-12-31T20:02:14.943Z,69.26
2023-12-31T20:04:42.081Z,69.01
2023-12-31T20:07:09.038Z,68.77
2023-12-31T20:09:35.897Z,68.97
2023-12-31T20:12:02.761Z,68.92
2023-12-31T20:14:29.553Z,69.13
2023-12-31T20:16:57.215Z,69.78
2023-12-31T20:19:24.079Z,69.98
2023-12-31T20:21:50.851Z,70.08
2023-12-31T20:24:19.703Z,70.10
2023-12-31T20:26:46.545Z,70.07
2023-12-31T20:29:16.607Z,69.92
2023-12-31T20:31:45.826Z,69.72
2023-12-31T20:34:16.082Z,69.18
2023-12-31T20:36:43.167Z,68.23
2023-12-31T20:39:10.026Z,68.11
2023-12-31T20:41:37.320Z,68.05
2023-12-31T20:44:04.348Z,67.91
2023-12-31T20:46:32.103Z,67.93
2023-12-31T20:48:58.994Z,67.19
2023-12-31T20:51:26.435Z,67.53
2023-12-31T20:53:53.595Z,67.67
2023-12-31T20:56:20.376Z,67.06
2023-12-31T20:58:47.356Z,67.12
2023-12-31T21:01:16.689Z,67.37
2023-12-31T21:03:44.480Z,67.43
2023-12-31T21:06:11.364Z,67.57
2023-12-31T21:08:38.333Z,67.56
2023-12-31T21:11:05.616Z,67.45
2023-12-31T21:13:33.242Z,67.40
2023-12-31T21:16:02.625Z,66.98
2023-12-31T21:18:31.411Z,66.75
2023-12-31T21:20:58.340Z,66.68
2023-12-31T21:23:25.579Z,66.40
2023-12-31T21:25:52.700Z,66.68
2023-12-31T21:28:20.328Z,66.91
2023-12-31T21:30:48.351Z,66.96
2023-12-31T21:33:15.236Z,66.78
2023-12-31T21:35:42.167Z,66.96
2023-12-31T21:38:09.091Z,66.94
2023-12-31T21:40:36.326Z,64.81
2023-12-31T21:43:05.267Z,63.15
2023-12-31T21:45:32.310Z,61.57
2023-12-31T21:47:59.325Z,62.04
2023-12-31T21:50:26.133Z,62.69
2023-12-31T21:52:53.047Z,63.17
2023-12-31T21:55:28.514Z,63.98
2023-12-31T21:58:06.037Z,62.36
2023-12-31T22:00:37.751Z,61.96
2023-12-31T22:03:05.571Z,62.23
2023-12-31T22:05:32.826Z,62.50
2023-12-31T22:07:59.792Z,62.80
2023-12-31T22:10:26.721Z,62.17
2023-12-31T22:12:53.887Z,61.38
2023-12-31T22:15:21.868Z,60.78
2023-12-31T22:17:49.348Z,60.76
2023-12-31T22:20:17.375Z,60.45
2023-12-31T22:22:44.925Z,60.83
2023-12-31T22:25:11.776Z,61.79
2023-12-31T22:27:38.853Z,62.38
2023-12-31T22:30:09.380Z,63.17
2023-12-31T22:32:38.426Z,62.77
2023-12-31T22:35:05.716Z,63.08
2023-12-31T22:37:32.959Z,62.97
2023-12-31T22:39:59.922Z,62.84
2023-12-31T22:42:27.281Z,63.06
2023-12-31T22:44:54.173Z,63.26
2023-12-31T22:47:21.164Z,63.16
2023-12-31T22:49:48.131Z,63.31
2023-12-31T22:52:14.999Z,62.78
2023-12-31T22:54:42.085Z,63.29
2023-12-31T22:57:08.898Z,62.72
2023-12-31T22:59:35.814Z,61.69
2023-12-31T23:02:02.681Z,60.72
2023-12-31T23:04:30.522Z,60.50
2023-12-31T23:06:57.419Z,60.69
2023-12-31T23:09:24.302Z,61.37
2023-12-31T23:11:51.584Z,60.63
2023-12-31T23:14:19.246Z,60.41
2023-12-31T23:16:46.139Z,62.36
2023-12-31T23:19:12.956Z,63.64
2023-12-31T23:21:40.939Z,62.30
2023-12-31T23:24:08.317Z,61.54
2023-12-31T23:26:38.382Z,65.02
2023-12-31T23:29:05.462Z,65.86
2023-12-31T23:31:33.087Z,63.75
2023-12-31T23:34:00.187Z,69.40
2023-12-31T23:36:27.173Z,65.68
2023-12-31T23:38:54.004Z,67.66
2023-12-31T23:41:21.230Z,64.59
2023-12-31T23:43:59.292Z,68.34
2023-12-31T23:46:29.812Z,66.28
2023-12-31T23:48:56.693Z,63.91
2023-12-31T23:51:23.649Z,62.28
2023-12-31T23:53:50.714Z,63.52
2023-12-31T23:56:17.665Z,63.43
2023-12-31T23:58:44.470Z,63.74
